HBSGO LSZB-LSZG

Flight info

Callsign HBSGO
Flight time 0h 24m
Altitude 4000
Route LSZB LSZG
Aircraft DA40/L-SFG/S

Departure

Time 2026-04-24 15:12
Airport Bern Airport (LSZB)

Arrival

Time 2026-04-24 15:36
Airport Grenchen Airfield (LSZG)
Time Latitude Longitude Altitude Speed Heading
2026-04-24 15:02 46.91110 7.50287 1674 ft 0 kts 324°
2026-04-24 15:05 46.91113 7.50285 1674 ft 2 kts 324°
2026-04-24 15:05 46.91120 7.50261 1686 ft 4 kts 244°
2026-04-24 15:06 46.91121 7.50219 1707 ft 7 kts 317°
2026-04-24 15:06 46.91164 7.50165 1707 ft 7 kts 318°
2026-04-24 15:06 46.91199 7.50121 1712 ft 6 kts 321°
2026-04-24 15:06 46.91233 7.50080 1707 ft 9 kts 320°
2026-04-24 15:07 46.91280 7.50021 1699 ft 8 kts 321°
2026-04-24 15:07 46.91322 7.49970 1674 ft 9 kts 320°
2026-04-24 15:07 46.91381 7.49898 1674 ft 10 kts 319°
2026-04-24 15:07 46.91430 7.49844 1674 ft 7 kts 321°
2026-04-24 15:08 46.91473 7.49792 1674 ft 10 kts 321°
2026-04-24 15:08 46.91515 7.49753 1678 ft 4 kts 11°
2026-04-24 15:08 46.91548 7.49768 1679 ft 4 kts 313°
2026-04-24 15:08 46.91550 7.49758 1674 ft 0 kts 247°
2026-04-24 15:10 46.91550 7.49757 1674 ft 1 kts 247°
2026-04-24 15:10 46.91533 7.49705 1676 ft 8 kts 237°
2026-04-24 15:10 46.91502 7.49642 1673 ft 7 kts 233°
2026-04-24 15:11 46.91476 7.49636 1673 ft 0 kts 142°
2026-04-24 15:11 46.91349 7.49794 1674 ft 50 kts 141°
2026-04-24 15:11 46.90971 7.50248 1776 ft 78 kts 141°
2026-04-24 15:11 46.90584 7.50762 2001 ft 76 kts 131°
2026-04-24 15:12 46.90205 7.51326 2124 ft 80 kts 131°
2026-04-24 15:12 46.89428 7.52487 2420 ft 78 kts 115°
2026-04-24 15:12 46.89511 7.53210 2546 ft 77 kts 47°
2026-04-24 15:13 46.89866 7.53776 2770 ft 76 kts 39°
2026-04-24 15:13 46.90210 7.54364 2936 ft 85 kts 82°
2026-04-24 15:13 46.89854 7.54800 2858 ft 77 kts 212°
2026-04-24 15:13 46.89477 7.54227 2733 ft 80 kts 235°
2026-04-24 15:14 46.89261 7.53551 2486 ft 74 kts 267°
2026-04-24 15:14 46.89244 7.52828 2288 ft 70 kts 279°
2026-04-24 15:14 46.89388 7.52165 2099 ft 67 kts 309°
2026-04-24 15:14 46.89735 7.51733 1997 ft 66 kts 325°
2026-04-24 15:15 46.90092 7.51314 1893 ft 66 kts 322°
2026-04-24 15:15 46.90441 7.50893 1805 ft 67 kts 321°
2026-04-24 15:15 46.90802 7.50458 1710 ft 66 kts 321°
2026-04-24 15:15 46.91120 7.50067 1715 ft 68 kts 321°
2026-04-24 15:16 46.91475 7.49627 1907 ft 67 kts 322°
2026-04-24 15:16 46.91824 7.49172 2072 ft 68 kts 317°
2026-04-24 15:16 46.92141 7.48636 2224 ft 69 kts 316°
2026-04-24 15:16 46.92551 7.48530 2360 ft 71 kts 38°
2026-04-24 15:17 46.92643 7.49289 2490 ft 87 kts 89°
2026-04-24 15:17 46.92641 7.50156 2754 ft 84 kts 84°
2026-04-24 15:17 46.92713 7.51043 2912 ft 90 kts 81°
2026-04-24 15:17 46.92848 7.51924 3097 ft 89 kts 68°
2026-04-24 15:18 46.93104 7.52766 3263 ft 91 kts 59°
2026-04-24 15:18 46.93477 7.53503 3469 ft 89 kts 46°
2026-04-24 15:18 46.93931 7.54095 3620 ft 87 kts 34°
2026-04-24 15:18 46.94480 7.54502 3789 ft 91 kts 18°
2026-04-24 15:19 46.95085 7.54782 3971 ft 90 kts 18°
2026-04-24 15:19 46.95728 7.55044 4046 ft 103 kts 14°
2026-04-24 15:19 46.96437 7.55261 4052 ft 107 kts
2026-04-24 15:19 46.97184 7.55394 4019 ft 107 kts
2026-04-24 15:20 46.97928 7.55564 4039 ft 104 kts 13°
2026-04-24 15:20 46.98594 7.55906 4064 ft 103 kts 18°
2026-04-24 15:20 46.99290 7.56135 4026 ft 103 kts
2026-04-24 15:20 47.00008 7.56263 4009 ft 105 kts
2026-04-24 15:21 47.00739 7.56313 3948 ft 104 kts
2026-04-24 15:21 47.01449 7.56361 3941 ft 100 kts
2026-04-24 15:21 47.02130 7.56415 3954 ft 96 kts
2026-04-24 15:21 47.02799 7.56502 3929 ft 96 kts 11°
2026-04-24 15:22 47.03454 7.56661 3931 ft 96 kts 10°
2026-04-24 15:22 47.03903 7.56714 3893 ft 96 kts
2026-04-24 15:22 47.04576 7.56703 3867 ft 96 kts 359°
2026-04-24 15:23 47.05891 7.56646 3886 ft 92 kts 356°
2026-04-24 15:23 47.07130 7.56313 3870 ft 93 kts 341°
2026-04-24 15:23 47.07714 7.55868 3898 ft 95 kts 335°
2026-04-24 15:24 47.09465 7.54523 3892 ft 93 kts 330°
2026-04-24 15:25 47.09612 7.53380 3927 ft 99 kts 152°
2026-04-24 15:25 47.10177 7.53454 3852 ft 99 kts 322°
2026-04-24 15:26 47.11829 7.51877 3887 ft 95 kts 326°
2026-04-24 15:27 47.12726 7.49254 3919 ft 104 kts 286°
2026-04-24 15:27 47.13226 7.46194 3812 ft 104 kts 287°
2026-04-24 15:28 47.13835 7.42298 3104 ft 94 kts 287°
2026-04-24 15:29 47.14110 7.40389 2922 ft 98 kts 284°
2026-04-24 15:30 47.15515 7.38470 2521 ft 88 kts 331°
2026-04-24 15:31 47.17323 7.38986 1783 ft 69 kts 64°
2026-04-24 15:32 47.18084 7.41472 1408 ft 52 kts 66°
2026-04-24 15:33 47.18748 7.43992 2044 ft 75 kts 110°
2026-04-24 15:33 47.17338 7.43280 2196 ft 98 kts 248°
2026-04-24 15:34 47.16546 7.41820 2161 ft 97 kts 200°
2026-04-24 15:35 47.16487 7.39767 1929 ft 75 kts 338°
2026-04-24 15:35 47.17439 7.39470 1701 ft 71 kts 46°
2026-04-24 15:35 47.17653 7.40074 1600 ft 66 kts 68°
2026-04-24 15:36 47.17845 7.40687 1507 ft 67 kts 67°
2026-04-24 15:36 47.18161 7.41713 1408 ft 19 kts 64°
2026-04-24 15:36 47.18206 7.41859 1405 ft 12 kts 66°
2026-04-24 15:37 47.18242 7.41878 1404 ft 6 kts 293°
2026-04-24 15:37 47.18263 7.41764 1404 ft 15 kts 285°
2026-04-24 15:37 47.18267 7.41650 1409 ft 9 kts 246°
2026-04-24 15:37 47.18231 7.41537 1410 ft 16 kts 243°
2026-04-24 15:38 47.18192 7.41408 1410 ft 12 kts 243°
2026-04-24 15:38 47.18160 7.41307 1410 ft 7 kts 258°
2026-04-24 15:38 47.18182 7.41271 1412 ft 7 kts 334°
2026-04-24 15:38 47.18191 7.41240 1418 ft 1 kts 242°